createdAt,value
2022-10-30T00:00:52.675Z,99.33
2022-10-30T00:03:20.378Z,99.13
2022-10-30T00:05:51.585Z,98.67
2022-10-30T00:08:21.272Z,98.46
2022-10-30T00:10:50.217Z,98.03
2022-10-30T00:13:18.284Z,98.11
2022-10-30T00:15:48.663Z,97.94
2022-10-30T00:18:16.459Z,97.32
2022-10-30T00:20:44.483Z,97.53
2022-10-30T00:23:13.327Z,97.16
2022-10-30T00:25:40.814Z,96.96
2022-10-30T00:28:08.634Z,97.22
2022-10-30T00:30:36.810Z,97.41
2022-10-30T00:33:05.239Z,97.77
2022-10-30T00:35:33.108Z,97.52
2022-10-30T00:38:01.603Z,97.93
2022-10-30T00:40:30.854Z,98.35
2022-10-30T00:42:58.352Z,97.93
2022-10-30T00:45:26.102Z,97.92
2022-10-30T00:47:54.974Z,97.76
2022-10-30T00:53:01.838Z,98.53
2022-10-30T00:55:33.326Z,97.91
2022-10-30T00:58:03.071Z,98.34
2022-10-30T01:00:30.825Z,98.69
2022-10-30T01:02:59.284Z,98.60
2022-10-30T01:05:29.071Z,98.41
2022-10-30T01:07:56.899Z,98.32
2022-10-30T01:10:24.771Z,98.24
2022-10-30T01:12:54.948Z,98.74
2022-10-30T01:15:26.005Z,98.76
2022-10-30T01:18:15.987Z,98.34
2022-10-30T01:21:00.894Z,99.20
2022-10-30T01:23:38.141Z,98.56
2022-10-30T01:26:13.511Z,98.76
2022-10-30T01:28:56.509Z,99.20
2022-10-30T01:31:34.856Z,98.93
2022-10-30T01:34:12.302Z,98.94
2022-10-30T01:36:44.702Z,98.16
2022-10-30T01:39:14.564Z,98.41
2022-10-30T01:41:42.072Z,98.39
2022-10-30T01:44:14.938Z,98.71
2022-10-30T01:46:55.550Z,98.27
2022-10-30T01:49:43.696Z,98.49
2022-10-30T01:52:14.835Z,98.33
2022-10-30T01:54:47.723Z,99.30
2022-10-30T01:57:22.833Z,98.31
2022-10-30T01:59:54.685Z,99.09
2022-10-30T02:02:22.412Z,99.39
2022-10-30T02:04:50.391Z,99.30
2022-10-30T02:07:18.072Z,99.43
2022-10-30T02:09:45.560Z,98.83
2022-10-30T02:12:13.111Z,99.03
2022-10-30T02:14:44.259Z,99.54
2022-10-30T02:17:13.364Z,99.12
2022-10-30T02:19:40.871Z,99.10
2022-10-30T02:22:09.746Z,98.69
2022-10-30T02:24:37.253Z,99.24
2022-10-30T02:27:05.067Z,98.25
2022-10-30T02:29:32.540Z,98.03
2022-10-30T02:32:00.099Z,98.42
2022-10-30T02:34:27.626Z,98.73
2022-10-30T02:36:55.110Z,98.89
2022-10-30T02:39:24.037Z,98.85
2022-10-30T02:41:51.510Z,98.89
2022-10-30T02:44:19.028Z,98.24
2022-10-30T02:46:46.520Z,98.46
2022-10-30T02:49:13.972Z,99.15
2022-10-30T02:51:41.478Z,99.10
2022-10-30T02:54:08.992Z,98.24
2022-10-30T02:56:37.850Z,98.87
2022-10-30T02:59:05.319Z,98.74
2022-10-30T03:01:32.902Z,99.26
2022-10-30T03:04:00.519Z,99.73
2022-10-30T03:06:28.110Z,99.22
2022-10-30T03:08:55.553Z,99.87
2022-10-30T03:11:23.080Z,100.00
2022-10-30T03:13:51.927Z,100.00
2022-10-30T03:16:21.147Z,99.84
2022-10-30T03:18:49.147Z,99.72
2022-10-30T03:21:18.418Z,99.59
2022-10-30T03:23:46.444Z,99.86
2022-10-30T03:26:13.993Z,99.21
2022-10-30T03:28:41.505Z,100.00
2022-10-30T03:31:11.617Z,100.00
2022-10-30T03:33:39.424Z,99.70
2022-10-30T03:36:08.083Z,99.68
2022-10-30T03:38:35.827Z,99.82
2022-10-30T03:41:03.341Z,100.00
2022-10-30T03:43:30.924Z,99.56
2022-10-30T03:45:58.495Z,99.48
2022-10-30T03:48:29.060Z,99.36
2022-10-30T03:50:57.357Z,98.97
2022-10-30T03:53:26.199Z,99.09
2022-10-30T03:55:54.187Z,98.84
2022-10-30T03:58:21.725Z,99.14
2022-10-30T04:00:49.231Z,99.57
2022-10-30T04:03:16.691Z,99.05
2022-10-30T04:05:45.552Z,99.53
2022-10-30T04:08:14.503Z,99.08
2022-10-30T04:10:43.584Z,98.39
2022-10-30T04:13:12.465Z,97.28
2022-10-30T04:15:39.986Z,97.43
2022-10-30T04:18:07.997Z,97.02
2022-10-30T04:20:35.507Z,97.41
2022-10-30T04:23:06.830Z,96.89
2022-10-30T04:25:35.693Z,97.12
2022-10-30T04:28:04.101Z,97.08
2022-10-30T04:30:35.249Z,96.78
2022-10-30T04:33:03.716Z,97.08
2022-10-30T04:35:32.492Z,97.62
2022-10-30T04:38:01.265Z,97.38
2022-10-30T04:40:32.465Z,97.46
2022-10-30T04:43:00.816Z,97.75
2022-10-30T04:45:28.483Z,97.56
2022-10-30T04:48:01.848Z,97.25
2022-10-30T04:50:29.508Z,98.30
2022-10-30T04:53:01.464Z,97.74
2022-10-30T04:55:30.702Z,97.75
2022-10-30T04:57:59.098Z,97.79
2022-10-30T05:00:27.726Z,98.60
2022-10-30T05:02:55.369Z,98.48
2022-10-30T05:05:22.854Z,98.45
2022-10-30T05:07:50.352Z,99.19
2022-10-30T05:10:18.318Z,98.80
2022-10-30T05:12:47.293Z,99.26
2022-10-30T05:15:15.188Z,99.47
2022-10-30T05:17:42.758Z,100.00
2022-10-30T05:20:14.765Z,99.91
2022-10-30T05:22:45.377Z,100.00
2022-10-30T05:25:12.920Z,100.00
2022-10-30T05:27:40.492Z,99.48
2022-10-30T05:30:10.542Z,98.89
2022-10-30T05:32:38.052Z,98.71
2022-10-30T05:35:06.164Z,98.48
2022-10-30T05:37:33.754Z,98.70
2022-10-30T05:40:01.219Z,98.75
2022-10-30T05:42:28.721Z,98.71
2022-10-30T05:45:00.831Z,98.73
2022-10-30T05:47:30.114Z,98.90
2022-10-30T05:49:57.584Z,98.67
2022-10-30T05:52:25.071Z,99.12
2022-10-30T05:54:52.564Z,99.21
2022-10-30T05:57:20.041Z,99.60
2022-10-30T05:59:47.571Z,100.00
2022-10-30T06:02:15.133Z,100.00
2022-10-30T06:04:43.959Z,100.00
2022-10-30T06:07:11.708Z,99.62
2022-10-30T06:09:39.183Z,99.75
2022-10-30T06:12:07.141Z,98.96
2022-10-30T06:14:34.636Z,100.00
2022-10-30T06:17:02.116Z,100.00
2022-10-30T06:19:29.683Z,99.90
2022-10-30T06:21:58.545Z,99.66
2022-10-30T06:24:26.051Z,99.74
2022-10-30T06:26:53.523Z,99.96
2022-10-30T06:29:21.097Z,100.00
2022-10-30T06:31:48.551Z,100.00
2022-10-30T06:34:16.047Z,100.00
2022-10-30T06:36:43.583Z,99.72
2022-10-30T06:39:12.466Z,99.21
2022-10-30T06:41:39.935Z,99.43
2022-10-30T06:44:07.422Z,99.91
2022-10-30T06:46:34.876Z,99.30
2022-10-30T06:49:02.577Z,99.89
2022-10-30T06:51:30.156Z,98.90
2022-10-30T06:53:57.612Z,99.15
2022-10-30T06:56:26.488Z,99.52
2022-10-30T06:58:53.965Z,98.08
2022-10-30T07:01:21.525Z,98.52
2022-10-30T07:03:49.066Z,98.80
2022-10-30T07:06:16.539Z,99.49
2022-10-30T07:08:44.066Z,99.16
2022-10-30T07:11:11.541Z,98.62
2022-10-30T07:13:40.360Z,99.00
2022-10-30T07:16:08.170Z,98.35
2022-10-30T07:18:35.648Z,98.46
2022-10-30T07:21:03.118Z,98.86
2022-10-30T07:23:30.607Z,98.28
2022-10-30T07:26:03.321Z,98.93
2022-10-30T07:28:32.379Z,99.07
2022-10-30T07:31:01.310Z,98.44
2022-10-30T07:33:28.803Z,98.43
2022-10-30T07:35:56.293Z,98.01
2022-10-30T07:38:24.051Z,98.35
2022-10-30T07:40:53.513Z,97.85
2022-10-30T07:43:21.090Z,97.71
2022-10-30T07:45:48.660Z,97.13
2022-10-30T07:48:17.555Z,97.43
2022-10-30T07:50:45.096Z,97.13
2022-10-30T07:53:12.588Z,97.13
2022-10-30T07:55:40.060Z,97.67
2022-10-30T07:58:07.560Z,96.96
2022-10-30T08:00:35.021Z,96.95
2022-10-30T08:03:02.890Z,97.32
2022-10-30T08:05:31.915Z,97.30
2022-10-30T08:07:59.814Z,97.15
2022-10-30T08:10:27.797Z,97.35
2022-10-30T08:12:55.354Z,97.65
2022-10-30T08:15:23.741Z,98.07
2022-10-30T08:17:51.922Z,98.20
2022-10-30T08:20:20.846Z,98.01
2022-10-30T08:22:50.356Z,97.97
2022-10-30T08:25:19.614Z,98.03
2022-10-30T08:27:52.250Z,98.09
2022-10-30T08:30:19.828Z,98.00
2022-10-30T08:32:47.338Z,98.39
2022-10-30T08:35:19.814Z,98.89
2022-10-30T08:37:49.115Z,98.76
2022-10-30T08:40:16.829Z,98.50
2022-10-30T08:42:44.303Z,98.58
2022-10-30T08:45:11.959Z,98.25
2022-10-30T08:47:39.426Z,98.45
2022-10-30T08:50:07.250Z,98.77
2022-10-30T08:52:34.746Z,98.67
2022-10-30T08:55:03.661Z,98.96
2022-10-30T08:57:36.610Z,98.53
2022-10-30T09:00:04.832Z,98.73
2022-10-30T09:02:32.493Z,98.72
2022-10-30T09:05:00.175Z,98.32
2022-10-30T09:07:27.742Z,97.03
2022-10-30T09:09:55.266Z,97.56
2022-10-30T09:12:24.175Z,97.65
2022-10-30T09:14:51.672Z,97.03
2022-10-30T09:17:19.173Z,97.01
2022-10-30T09:22:19.214Z,97.64
2022-10-30T09:24:46.720Z,97.34
2022-10-30T09:27:14.718Z,97.81
2022-10-30T09:29:43.578Z,97.32
2022-10-30T09:32:11.442Z,97.42
2022-10-30T09:34:39.603Z,97.47
2022-10-30T09:37:07.143Z,97.16
2022-10-30T09:39:34.621Z,96.12
2022-10-30T09:42:16.033Z,95.64
2022-10-30T09:45:15.208Z,95.45
2022-10-30T09:47:46.330Z,95.47
2022-10-30T09:50:25.798Z,94.47
2022-10-30T09:52:59.684Z,94.60
2022-10-30T09:55:35.778Z,94.53
2022-10-30T09:58:16.857Z,94.40
2022-10-30T10:00:48.956Z,93.07
2022-10-30T10:03:26.780Z,91.13
2022-10-30T10:05:57.215Z,91.68
2022-10-30T10:08:29.401Z,91.09
2022-10-30T10:11:00.038Z,90.44
2022-10-30T10:13:31.682Z,90.24
2022-10-30T10:16:06.789Z,90.29
2022-10-30T10:18:38.973Z,88.83
2022-10-30T10:21:10.668Z,88.62
2022-10-30T10:23:44.522Z,88.61
2022-10-30T10:26:21.762Z,88.32
2022-10-30T10:28:56.366Z,88.21
2022-10-30T10:31:35.255Z,87.95
2022-10-30T10:34:24.315Z,86.33
2022-10-30T10:36:57.610Z,85.86
2022-10-30T10:39:34.974Z,85.90
2022-10-30T10:42:10.101Z,85.39
2022-10-30T10:44:47.782Z,85.41
2022-10-30T10:47:37.098Z,85.07
2022-10-30T10:50:17.134Z,85.32
2022-10-30T10:52:48.763Z,85.44
2022-10-30T10:55:18.494Z,84.78
2022-10-30T10:57:46.504Z,84.16
2022-10-30T11:00:17.605Z,83.92
2022-10-30T11:02:48.869Z,83.21
2022-10-30T11:05:21.427Z,81.00
2022-10-30T11:07:50.399Z,81.54
2022-10-30T11:10:19.879Z,81.72
2022-10-30T11:12:47.541Z,81.37
2022-10-30T11:15:23.454Z,80.99
2022-10-30T11:17:56.933Z,81.06
2022-10-30T11:20:30.173Z,81.33
2022-10-30T11:22:57.919Z,81.94
2022-10-30T11:25:30.321Z,81.02
2022-10-30T11:28:00.655Z,80.29
2022-10-30T11:30:29.334Z,78.59
2022-10-30T11:32:59.940Z,78.11
2022-10-30T11:35:27.741Z,76.67
2022-10-30T11:38:13.215Z,77.35
2022-10-30T11:40:41.336Z,76.46
2022-10-30T11:43:10.287Z,75.10
2022-10-30T11:45:40.809Z,75.78
2022-10-30T11:48:13.849Z,75.37
2022-10-30T11:50:48.114Z,74.08
2022-10-30T11:53:21.678Z,75.16
2022-10-30T11:55:50.054Z,75.19
2022-10-30T11:58:24.530Z,74.67
2022-10-30T12:01:01.102Z,75.13
2022-10-30T12:03:35.050Z,74.97
2022-10-30T12:06:09.305Z,74.90
2022-10-30T12:08:36.896Z,74.68
2022-10-30T12:11:06.471Z,73.69
2022-10-30T12:13:38.803Z,73.35
2022-10-30T12:16:14.535Z,72.46
2022-10-30T12:18:43.975Z,72.46
2022-10-30T12:21:12.033Z,72.74
2022-10-30T12:23:39.746Z,72.25
2022-10-30T12:26:11.120Z,73.06
2022-10-30T12:28:39.228Z,72.86
2022-10-30T12:31:11.116Z,73.25
2022-10-30T12:33:43.592Z,73.22
2022-10-30T12:36:13.044Z,73.72
2022-10-30T12:38:44.082Z,74.04
2022-10-30T12:41:16.638Z,74.03
2022-10-30T12:43:47.153Z,73.68
2022-10-30T12:46:33.181Z,71.78
2022-10-30T12:49:09.860Z,73.22
2022-10-30T12:51:43.144Z,73.10
2022-10-30T12:54:18.863Z,73.00
2022-10-30T12:56:50.033Z,73.46
2022-10-30T12:59:36.619Z,72.48
2022-10-30T13:02:14.241Z,71.40
2022-10-30T13:04:45.968Z,70.69
2022-10-30T13:07:19.017Z,69.65
2022-10-30T13:10:02.048Z,71.10
2022-10-30T13:12:33.700Z,69.44
2022-10-30T13:15:05.139Z,69.81
2022-10-30T13:17:32.655Z,69.89
2022-10-30T13:20:01.621Z,69.43
2022-10-30T13:22:32.301Z,70.09
2022-10-30T13:25:04.257Z,71.58
2022-10-30T13:27:41.244Z,70.09
2022-10-30T13:30:12.204Z,69.94
2022-10-30T13:32:46.680Z,70.48
2022-10-30T13:35:22.694Z,71.19
2022-10-30T13:37:56.387Z,69.73
2022-10-30T13:40:32.508Z,70.36
2022-10-30T13:43:05.450Z,69.70
2022-10-30T13:45:58.166Z,70.92
2022-10-30T13:48:35.018Z,70.21
2022-10-30T13:51:36.190Z,70.83
2022-10-30T13:54:10.334Z,70.96
2022-10-30T13:56:37.944Z,71.40
2022-10-30T13:59:19.132Z,71.48
2022-10-30T14:01:54.465Z,72.61
2022-10-30T14:04:33.343Z,72.34
2022-10-30T14:07:12.258Z,72.39
2022-10-30T14:09:43.401Z,72.96
2022-10-30T14:12:48.535Z,72.50
2022-10-30T14:15:22.248Z,72.65
2022-10-30T14:18:27.680Z,72.79
2022-10-30T14:20:57.190Z,73.23
2022-10-30T14:23:28.725Z,73.96
2022-10-30T14:26:15.986Z,73.97
2022-10-30T14:28:45.182Z,73.58
2022-10-30T14:31:14.165Z,74.15
2022-10-30T14:33:46.981Z,74.57
2022-10-30T14:36:22.910Z,75.19
2022-10-30T14:38:56.845Z,75.51
2022-10-30T14:41:56.388Z,75.77
2022-10-30T14:44:48.554Z,76.67
2022-10-30T14:47:39.496Z,76.17
2022-10-30T14:50:16.731Z,76.47
2022-10-30T14:52:52.922Z,76.92
2022-10-30T14:55:28.276Z,77.40
2022-10-30T14:58:17.332Z,77.55
2022-10-30T15:00:45.557Z,77.29
2022-10-30T15:03:44.104Z,77.68
2022-10-30T15:06:22.075Z,77.75
2022-10-30T15:08:59.129Z,78.09
2022-10-30T15:11:48.002Z,79.18
2022-10-30T15:14:21.669Z,79.71
2022-10-30T15:17:00.402Z,80.25
2022-10-30T15:19:28.887Z,80.94
2022-10-30T15:21:57.572Z,81.25
2022-10-30T15:24:31.986Z,81.53
2022-10-30T15:27:01.909Z,81.91
2022-10-30T15:29:31.904Z,82.24
2022-10-30T15:32:01.195Z,82.83
2022-10-30T15:34:30.933Z,82.89
2022-10-30T15:36:59.808Z,83.13
2022-10-30T15:39:27.754Z,83.12
2022-10-30T15:41:57.972Z,83.72
2022-10-30T15:44:29.116Z,83.83
2022-10-30T15:46:58.051Z,84.09
2022-10-30T15:49:30.953Z,84.24
2022-10-30T15:52:00.048Z,84.33
2022-10-30T15:54:28.767Z,84.31
2022-10-30T15:59:52.741Z,84.68
2022-10-30T16:02:22.548Z,84.99
2022-10-30T16:04:50.784Z,85.14
2022-10-30T16:07:20.323Z,85.25
2022-10-30T16:09:55.427Z,85.35
2022-10-30T16:12:25.928Z,85.59
2022-10-30T16:14:55.274Z,86.14
2022-10-30T16:17:23.199Z,86.63
2022-10-30T16:19:53.132Z,86.69
2022-10-30T16:22:24.998Z,86.47
2022-10-30T16:24:52.952Z,87.08
2022-10-30T16:27:22.258Z,87.07
2022-10-30T16:29:51.581Z,87.17
2022-10-30T16:32:22.433Z,87.58
2022-10-30T16:34:51.225Z,88.34
2022-10-30T16:37:22.040Z,88.74
2022-10-30T16:39:50.876Z,88.49
2022-10-30T16:42:20.875Z,89.05
2022-10-30T16:44:48.966Z,88.79
2022-10-30T16:47:27.129Z,88.97
2022-10-30T16:49:57.248Z,89.36
2022-10-30T16:52:28.479Z,89.30
2022-10-30T16:55:01.513Z,89.35
2022-10-30T16:57:30.707Z,89.74
2022-10-30T16:59:59.026Z,89.80
2022-10-30T17:02:30.860Z,89.88
2022-10-30T17:05:03.400Z,89.78
2022-10-30T17:07:31.132Z,89.68
2022-10-30T17:09:58.838Z,90.43
2022-10-30T17:12:27.900Z,90.43
2022-10-30T17:14:56.922Z,91.50
2022-10-30T17:17:31.595Z,91.78
2022-10-30T17:20:01.924Z,91.90
2022-10-30T17:22:30.268Z,92.34
2022-10-30T17:24:59.084Z,92.07
2022-10-30T17:27:46.023Z,92.51
2022-10-30T17:30:37.900Z,92.05
2022-10-30T17:33:27.001Z,91.66
2022-10-30T17:38:27.795Z,92.11
2022-10-30T17:40:55.430Z,92.17
2022-10-30T17:43:24.820Z,92.39
2022-10-30T17:45:52.524Z,92.34
2022-10-30T17:48:22.741Z,92.92
2022-10-30T17:50:50.578Z,92.77
2022-10-30T17:53:21.669Z,92.71
2022-10-30T17:55:51.793Z,93.06
2022-10-30T17:58:31.492Z,92.95
2022-10-30T18:00:59.442Z,93.23
2022-10-30T18:03:28.934Z,93.28
2022-10-30T18:05:58.299Z,93.33
2022-10-30T18:08:26.115Z,93.69
2022-10-30T18:10:53.927Z,93.20
2022-10-30T18:13:21.937Z,93.70
2022-10-30T18:15:53.872Z,93.17
2022-10-30T18:18:21.525Z,93.57
2022-10-30T18:20:50.632Z,93.71
2022-10-30T18:23:46.802Z,93.60
2022-10-30T18:26:08.439Z,93.59
2022-10-30T18:28:36.153Z,93.39
2022-10-30T18:31:03.758Z,93.20
2022-10-30T18:33:31.472Z,93.00
2022-10-30T18:36:00.736Z,93.21
2022-10-30T18:38:28.570Z,93.48
2022-10-30T18:40:56.478Z,93.35
2022-10-30T18:43:24.114Z,93.71
2022-10-30T18:45:52.008Z,93.30
2022-10-30T18:48:19.789Z,93.68
2022-10-30T18:50:47.555Z,93.80
2022-10-30T18:53:18.804Z,93.53
2022-10-30T18:55:49.616Z,93.90
2022-10-30T18:58:17.391Z,93.79
2022-10-30T19:01:10.681Z,93.92
2022-10-30T19:03:32.672Z,94.29
2022-10-30T19:06:00.341Z,93.94
2022-10-30T19:08:29.285Z,93.73
2022-10-30T19:10:58.119Z,94.17
2022-10-30T19:13:25.812Z,93.79
2022-10-30T19:16:00.146Z,93.60
2022-10-30T19:18:31.157Z,94.02
2022-10-30T19:21:09.140Z,94.31
2022-10-30T19:23:42.151Z,94.37
2022-10-30T19:26:13.322Z,94.29
2022-10-30T19:28:41.570Z,94.40
2022-10-30T19:31:12.476Z,94.81
2022-10-30T19:33:40.181Z,94.92
2022-10-30T19:36:08.296Z,95.36
2022-10-30T19:38:35.895Z,95.15
2022-10-30T19:41:07.248Z,95.42
2022-10-30T19:43:35.031Z,95.76
2022-10-30T19:46:03.785Z,95.79
2022-10-30T19:51:19.294Z,95.77
2022-10-30T19:53:46.871Z,95.91
2022-10-30T19:56:16.131Z,95.87
2022-10-30T19:58:43.750Z,95.88
2022-10-30T20:01:13.497Z,95.90
2022-10-30T20:03:41.199Z,95.99
2022-10-30T20:06:10.567Z,95.53
2022-10-30T20:08:38.230Z,95.42
2022-10-30T20:11:06.086Z,95.27
2022-10-30T20:13:35.241Z,95.81
2022-10-30T20:16:04.917Z,95.43
2022-10-30T20:18:35.023Z,95.17
2022-10-30T20:21:04.231Z,95.55
2022-10-30T20:23:32.074Z,95.90
2022-10-30T20:26:02.353Z,95.21
2022-10-30T20:28:34.302Z,95.34
2022-10-30T20:31:03.666Z,95.37
2022-10-30T20:33:31.332Z,95.38
2022-10-30T20:35:59.368Z,95.14
2022-10-30T20:38:29.250Z,95.34
2022-10-30T20:40:58.028Z,95.82
2022-10-30T20:43:32.451Z,95.42
2022-10-30T20:46:00.494Z,95.93
2022-10-30T20:48:30.106Z,96.19
2022-10-30T20:51:01.296Z,96.03
2022-10-30T20:53:29.946Z,95.62
2022-10-30T20:55:59.298Z,95.76
2022-10-30T20:58:28.345Z,95.59
2022-10-30T21:00:57.911Z,95.51
2022-10-30T21:03:25.710Z,96.31
2022-10-30T21:05:57.517Z,96.35
2022-10-30T21:08:25.259Z,96.43
2022-10-30T21:11:03.323Z,96.29
2022-10-30T21:13:31.158Z,96.68
2022-10-30T21:16:02.217Z,96.39
2022-10-30T21:18:30.263Z,96.96
2022-10-30T21:21:02.518Z,96.82
2022-10-30T21:23:30.121Z,96.98
2022-10-30T21:26:01.040Z,96.60
2022-10-30T21:28:28.790Z,96.46
2022-10-30T21:30:56.574Z,96.13
2022-10-30T21:33:24.235Z,96.15
2022-10-30T21:35:51.839Z,95.51
2022-10-30T21:38:20.899Z,95.34
2022-10-30T21:40:55.749Z,94.30
2022-10-30T21:43:23.362Z,94.81
2022-10-30T21:45:51.022Z,94.39
2022-10-30T21:48:18.648Z,94.46
2022-10-30T21:50:46.296Z,94.66
2022-10-30T21:53:14.007Z,94.41
2022-10-30T21:55:43.002Z,94.82
2022-10-30T21:58:10.625Z,94.58
2022-10-30T22:00:38.532Z,94.85
2022-10-30T22:03:06.307Z,94.66
2022-10-30T22:05:35.208Z,95.71
2022-10-30T22:08:03.094Z,96.58
2022-10-30T22:10:32.153Z,97.34
2022-10-30T22:13:01.202Z,96.70
2022-10-30T22:15:29.111Z,96.92
2022-10-30T22:17:57.031Z,97.18
2022-10-30T22:20:27.278Z,97.32
2022-10-30T22:22:56.508Z,97.91
2022-10-30T22:25:24.165Z,98.13
2022-10-30T22:27:51.897Z,97.91
2022-10-30T22:30:21.120Z,97.66
2022-10-30T22:32:48.793Z,98.20
2022-10-30T22:35:16.590Z,97.78
2022-10-30T22:37:44.255Z,97.74
2022-10-30T22:40:12.321Z,97.44
2022-10-30T22:42:39.984Z,97.32
2022-10-30T22:45:09.137Z,97.09
2022-10-30T22:47:38.031Z,97.46
2022-10-30T22:50:06.709Z,97.47
2022-10-30T22:52:34.369Z,98.06
2022-10-30T22:55:01.951Z,97.57
2022-10-30T22:57:29.557Z,97.86
2022-10-30T22:59:59.563Z,98.74
2022-10-30T23:02:29.796Z,97.59
2022-10-30T23:04:58.857Z,97.74
2022-10-30T23:07:26.505Z,98.07
2022-10-30T23:09:54.160Z,98.02
2022-10-30T23:12:21.859Z,97.87
2022-10-30T23:14:49.509Z,96.96
2022-10-30T23:17:17.323Z,97.59
2022-10-30T23:19:47.029Z,97.37
2022-10-30T23:22:16.161Z,97.22
2022-10-30T23:24:43.824Z,97.31
2022-10-30T23:27:12.941Z,97.67
2022-10-30T23:29:40.473Z,98.01
2022-10-30T23:32:08.134Z,98.32
2022-10-30T23:34:35.847Z,98.36
2022-10-30T23:37:03.529Z,97.77
2022-10-30T23:39:32.556Z,97.94
2022-10-30T23:42:00.450Z,97.88
2022-10-30T23:44:29.397Z,97.81
2022-10-30T23:46:57.772Z,98.50
2022-10-30T23:49:27.991Z,97.58
2022-10-30T23:51:57.914Z,96.94
2022-10-30T23:54:25.692Z,97.33
2022-10-30T23:56:54.749Z,97.96
2022-10-30T23:59:24.576Z,98.05
